createdAt,value
2022-10-21T00:02:01.689Z,11.60
2022-10-21T00:04:28.575Z,11.50
2022-10-21T00:06:55.660Z,11.50
2022-10-21T00:09:22.593Z,11.50
2022-10-21T00:11:49.904Z,11.50
2022-10-21T00:14:16.867Z,11.50
2022-10-21T00:16:43.899Z,11.60
2022-10-21T00:19:10.832Z,11.60
2022-10-21T00:21:38.044Z,11.70
2022-10-21T00:24:05.300Z,11.70
2022-10-21T00:26:35.012Z,11.70
2022-10-21T00:29:04.650Z,11.80
2022-10-21T00:31:32.023Z,11.80
2022-10-21T00:33:58.908Z,11.80
2022-10-21T00:36:25.935Z,11.70
2022-10-21T00:38:52.827Z,11.70
2022-10-21T00:41:20.647Z,11.60
2022-10-21T00:44:06.366Z,11.50
2022-10-21T00:46:44.466Z,11.50
2022-10-21T00:49:44.263Z,11.50
2022-10-21T00:52:19.090Z,11.40
2022-10-21T00:54:48.745Z,11.40
2022-10-21T00:57:19.613Z,11.40
2022-10-21T00:59:51.808Z,11.40
2022-10-21T01:02:18.853Z,11.30
2022-10-21T01:04:46.941Z,11.30
2022-10-21T01:07:13.957Z,11.30
2022-10-21T01:09:40.935Z,11.30
2022-10-21T01:12:15.912Z,11.20
2022-10-21T01:14:57.868Z,11.20
2022-10-21T01:17:45.177Z,11.20
2022-10-21T01:20:40.294Z,11.20
2022-10-21T01:23:24.561Z,11.10
2022-10-21T01:26:13.213Z,11.20
2022-10-21T01:29:01.575Z,11.10
2022-10-21T01:32:00.750Z,11.10
2022-10-21T01:34:39.653Z,11.10
2022-10-21T01:37:33.838Z,11.10
2022-10-21T01:40:00.725Z,11.00
2022-10-21T01:42:43.550Z,11.00
2022-10-21T01:45:27.328Z,11.10
2022-10-21T01:48:02.660Z,11.20
2022-10-21T01:50:35.130Z,11.20
2022-10-21T01:53:13.908Z,11.30
2022-10-21T01:55:43.194Z,11.30
2022-10-21T01:58:18.085Z,11.30
2022-10-21T02:00:46.160Z,11.30
2022-10-21T02:03:20.530Z,11.30
2022-10-21T02:05:47.469Z,11.40
2022-10-21T02:08:14.548Z,11.30
2022-10-21T02:10:46.924Z,11.20
2022-10-21T02:13:31.139Z,11.30
2022-10-21T02:16:02.302Z,11.20
2022-10-21T02:18:29.268Z,11.10
2022-10-21T02:21:10.607Z,11.10
2022-10-21T02:23:47.239Z,11.10
2022-10-21T02:26:14.220Z,11.10
2022-10-21T02:28:41.755Z,11.10
2022-10-21T02:31:23.929Z,11.20
2022-10-21T02:34:19.929Z,11.20
2022-10-21T02:36:52.302Z,11.10
2022-10-21T02:39:38.910Z,11.10
2022-10-21T02:42:09.924Z,11.10
2022-10-21T02:44:36.942Z,11.20
2022-10-21T02:47:04.730Z,11.20
2022-10-21T02:49:31.702Z,11.20
2022-10-21T02:51:58.717Z,11.30
2022-10-21T02:54:25.607Z,11.30
2022-10-21T02:56:53.669Z,11.30
2022-10-21T02:59:20.650Z,11.30
2022-10-21T03:01:47.621Z,11.20
2022-10-21T03:04:14.531Z,11.10
2022-10-21T03:06:41.500Z,11.20
2022-10-21T03:09:08.411Z,11.10
2022-10-21T03:11:35.453Z,11.10
2022-10-21T03:14:02.448Z,11.20
2022-10-21T03:16:29.486Z,11.20
2022-10-21T03:18:56.428Z,11.20
2022-10-21T03:21:23.337Z,11.20
2022-10-21T03:23:50.250Z,11.20
2022-10-21T03:26:17.228Z,11.20
2022-10-21T03:28:44.168Z,11.20
2022-10-21T03:31:11.171Z,11.20
2022-10-21T03:33:38.130Z,11.10
2022-10-21T03:36:05.611Z,11.20
2022-10-21T03:38:32.614Z,11.20
2022-10-21T03:40:59.635Z,11.30
2022-10-21T03:43:26.558Z,11.30
2022-10-21T03:45:53.544Z,11.40
2022-10-21T03:48:20.481Z,11.40
2022-10-21T03:50:47.395Z,11.40
2022-10-21T03:53:37.897Z,11.40
2022-10-21T03:56:01.252Z,11.50
2022-10-21T03:58:28.599Z,11.50
2022-10-21T04:00:56.119Z,11.50
2022-10-21T04:03:23.178Z,11.60
2022-10-21T04:05:50.078Z,11.60
2022-10-21T04:08:17.026Z,11.60
2022-10-21T04:10:45.591Z,11.60
2022-10-21T04:13:13.252Z,11.50
2022-10-21T04:15:40.744Z,11.50
2022-10-21T04:18:08.047Z,11.50
2022-10-21T04:20:35.159Z,11.40
2022-10-21T04:23:02.620Z,11.30
2022-10-21T04:25:29.567Z,11.30
2022-10-21T04:27:56.541Z,11.20
2022-10-21T04:30:23.612Z,11.20
2022-10-21T04:32:51.029Z,11.20
2022-10-21T04:35:18.630Z,11.20
2022-10-21T04:37:45.759Z,11.20
2022-10-21T04:40:12.758Z,11.10
2022-10-21T04:42:39.672Z,11.10
2022-10-21T04:45:07.276Z,11.10
2022-10-21T04:47:34.206Z,11.00
2022-10-21T04:50:01.129Z,11.00
2022-10-21T04:52:28.015Z,11.00
2022-10-21T04:54:54.939Z,11.00
2022-10-21T04:57:21.918Z,11.00
2022-10-21T04:59:48.850Z,11.00
2022-10-21T05:02:15.860Z,11.10
2022-10-21T05:04:42.826Z,11.10
2022-10-21T05:07:10.273Z,11.20
2022-10-21T05:09:37.179Z,11.20
2022-10-21T05:12:04.530Z,11.20
2022-10-21T05:14:31.602Z,11.30
2022-10-21T05:16:58.574Z,11.30
2022-10-21T05:19:28.979Z,11.30
2022-10-21T05:21:58.349Z,11.40
2022-10-21T05:24:25.349Z,11.40
2022-10-21T05:26:52.392Z,11.40
2022-10-21T05:29:19.508Z,11.40
2022-10-21T05:31:46.412Z,11.40
2022-10-21T05:34:13.360Z,11.50
2022-10-21T05:36:40.304Z,11.50
2022-10-21T05:39:11.420Z,11.50
2022-10-21T05:41:41.016Z,11.60
2022-10-21T05:44:09.836Z,11.60
2022-10-21T05:46:36.818Z,11.70
2022-10-21T05:49:03.853Z,11.70
2022-10-21T05:51:30.922Z,11.70
2022-10-21T05:53:58.324Z,11.80
2022-10-21T05:56:25.292Z,11.80
2022-10-21T05:58:52.251Z,11.80
2022-10-21T06:01:19.335Z,11.80
2022-10-21T06:03:46.279Z,11.80
2022-10-21T06:06:13.352Z,11.80
2022-10-21T06:08:40.733Z,11.80
2022-10-21T06:11:12.822Z,11.90
2022-10-21T06:13:40.324Z,11.90
2022-10-21T06:16:08.741Z,11.90
2022-10-21T06:18:36.325Z,11.90
2022-10-21T06:21:03.704Z,12.00
2022-10-21T06:23:30.595Z,12.00
2022-10-21T06:26:03.190Z,12.00
2022-10-21T06:28:32.909Z,12.10
2022-10-21T06:31:00.556Z,12.10
2022-10-21T06:33:27.562Z,12.10
2022-10-21T06:35:55.593Z,12.10
2022-10-21T06:38:22.967Z,12.20
2022-10-21T06:40:49.892Z,12.20
2022-10-21T06:43:17.132Z,12.20
2022-10-21T06:45:44.472Z,12.20
2022-10-21T06:48:13.700Z,12.20
2022-10-21T06:50:41.266Z,12.30
2022-10-21T06:53:08.352Z,12.30
2022-10-21T06:55:35.437Z,12.30
2022-10-21T06:58:02.531Z,12.40
2022-10-21T07:02:57.387Z,12.50
2022-10-21T07:05:24.315Z,12.60
2022-10-21T07:07:51.202Z,12.60
2022-10-21T07:10:18.238Z,12.70
2022-10-21T07:12:46.790Z,12.70
2022-10-21T07:15:14.914Z,12.70
2022-10-21T07:17:42.099Z,12.70
2022-10-21T07:20:09.467Z,12.80
2022-10-21T07:22:36.384Z,12.80
2022-10-21T07:25:04.116Z,12.80
2022-10-21T07:27:31.118Z,12.80
2022-10-21T07:29:58.211Z,12.70
2022-10-21T07:32:25.112Z,12.80
2022-10-21T07:34:52.042Z,12.80
2022-10-21T07:37:18.972Z,12.80
2022-10-21T07:39:45.935Z,12.80
2022-10-21T07:42:12.843Z,12.90
2022-10-21T07:44:39.792Z,12.90
2022-10-21T07:47:06.767Z,12.90
2022-10-21T07:49:33.690Z,12.90
2022-10-21T07:52:00.830Z,12.90
2022-10-21T07:54:27.788Z,13.00
2022-10-21T07:56:54.840Z,13.00
2022-10-21T07:59:22.837Z,13.00
2022-10-21T08:04:22.601Z,13.00
2022-10-21T08:06:50.189Z,13.10
2022-10-21T08:09:17.657Z,13.00
2022-10-21T08:11:45.557Z,13.10
2022-10-21T08:14:12.735Z,13.00
2022-10-21T08:16:40.766Z,13.00
2022-10-21T08:19:08.870Z,13.00
2022-10-21T08:21:37.632Z,13.00
2022-10-21T08:24:05.685Z,13.00
2022-10-21T08:26:33.082Z,13.00
2022-10-21T08:29:01.844Z,13.00
2022-10-21T08:31:28.945Z,13.10
2022-10-21T08:33:56.151Z,13.20
2022-10-21T08:36:25.474Z,13.20
2022-10-21T08:38:53.155Z,13.30
2022-10-21T08:41:29.441Z,13.40
2022-10-21T08:43:59.154Z,13.50
2022-10-21T08:46:33.711Z,13.60
2022-10-21T08:49:07.373Z,13.60
2022-10-21T08:51:40.707Z,13.70
2022-10-21T08:54:16.481Z,13.70
2022-10-21T08:56:44.040Z,13.60
2022-10-21T08:59:21.689Z,13.70
2022-10-21T09:02:06.246Z,13.60
2022-10-21T09:04:42.159Z,13.60
2022-10-21T09:07:41.734Z,13.60
2022-10-21T09:10:28.729Z,13.70
2022-10-21T09:13:11.568Z,13.70
2022-10-21T09:16:19.896Z,13.80
2022-10-21T09:18:58.306Z,14.00
2022-10-21T09:22:05.515Z,14.10
2022-10-21T09:24:54.974Z,14.20
2022-10-21T09:27:31.896Z,14.10
2022-10-21T09:30:16.523Z,14.20
2022-10-21T09:32:51.495Z,14.30
2022-10-21T09:35:23.918Z,14.30
2022-10-21T09:38:00.522Z,14.30
2022-10-21T09:40:30.307Z,14.40
2022-10-21T09:43:01.452Z,14.50
2022-10-21T09:45:43.878Z,14.60
2022-10-21T09:48:20.075Z,14.60
2022-10-21T09:50:52.305Z,14.60
2022-10-21T09:53:34.071Z,14.60
2022-10-21T09:56:07.005Z,14.50
2022-10-21T09:58:36.874Z,14.50
2022-10-21T10:01:07.111Z,14.40
2022-10-21T10:03:42.299Z,14.30
2022-10-21T10:06:09.612Z,14.30
2022-10-21T10:08:47.287Z,14.40
2022-10-21T10:11:21.685Z,14.40
2022-10-21T10:13:53.195Z,14.50
2022-10-21T10:16:30.286Z,14.50
2022-10-21T10:19:17.454Z,14.50
2022-10-21T10:21:45.290Z,14.40
2022-10-21T10:24:20.341Z,14.40
2022-10-21T10:26:48.212Z,14.40
2022-10-21T10:29:15.133Z,14.40
2022-10-21T10:31:51.221Z,14.40
2022-10-21T10:34:37.324Z,14.40
2022-10-21T10:37:16.367Z,14.40
2022-10-21T10:39:46.534Z,14.40
2022-10-21T10:42:19.980Z,14.40
2022-10-21T10:44:48.027Z,14.40
2022-10-21T10:47:35.714Z,14.40
2022-10-21T10:50:02.750Z,14.50
2022-10-21T10:52:29.710Z,14.60
2022-10-21T10:55:11.825Z,14.70
2022-10-21T10:57:46.133Z,14.80
2022-10-21T11:00:25.722Z,15.10
2022-10-21T11:03:14.552Z,15.40
2022-10-21T11:05:46.303Z,15.80
2022-10-21T11:08:30.787Z,16.00
2022-10-21T11:11:03.955Z,16.20
2022-10-21T11:13:34.013Z,16.30
2022-10-21T11:16:31.406Z,16.30
2022-10-21T11:19:33.893Z,16.30
2022-10-21T11:22:23.650Z,16.40
2022-10-21T11:25:14.092Z,16.50
2022-10-21T11:27:55.213Z,16.60
2022-10-21T11:30:27.736Z,16.70
2022-10-21T11:33:29.345Z,16.70
2022-10-21T11:36:11.970Z,16.70
2022-10-21T11:38:47.872Z,16.60
2022-10-21T11:41:28.455Z,16.50
2022-10-21T11:44:01.571Z,16.30
2022-10-21T11:46:59.631Z,16.30
2022-10-21T11:49:49.791Z,16.30
2022-10-21T11:52:38.443Z,16.50
2022-10-21T11:55:26.755Z,16.70
2022-10-21T11:57:59.540Z,16.90
2022-10-21T12:00:27.535Z,17.10
2022-10-21T12:03:23.789Z,17.20
2022-10-21T12:06:04.223Z,17.40
2022-10-21T12:08:34.385Z,17.40
2022-10-21T12:11:13.648Z,17.60
2022-10-21T12:13:46.324Z,17.70
2022-10-21T12:16:18.251Z,17.60
2022-10-21T12:18:51.133Z,17.70
2022-10-21T12:21:30.940Z,17.90
2022-10-21T12:24:33.933Z,18.10
2022-10-21T12:27:10.069Z,18.10
2022-10-21T12:30:01.441Z,18.10
2022-10-21T12:32:34.187Z,17.90
2022-10-21T12:35:02.105Z,18.00
2022-10-21T12:37:52.130Z,18.00
2022-10-21T12:40:28.181Z,18.10
2022-10-21T12:43:03.542Z,18.10
2022-10-21T12:45:33.120Z,18.00
2022-10-21T12:48:01.614Z,17.90
2022-10-21T12:50:33.984Z,17.90
2022-10-21T12:53:34.516Z,17.90
2022-10-21T12:56:02.106Z,17.70
2022-10-21T12:58:44.070Z,17.70
2022-10-21T13:01:35.027Z,17.70
2022-10-21T13:04:02.017Z,17.70
2022-10-21T13:06:50.469Z,17.60
2022-10-21T13:09:35.178Z,17.70
2022-10-21T13:12:15.606Z,17.70
2022-10-21T13:14:45.201Z,17.90
2022-10-21T13:17:21.182Z,18.00
2022-10-21T13:19:49.535Z,18.10
2022-10-21T13:22:34.625Z,18.10
2022-10-21T13:25:21.347Z,18.20
2022-10-21T13:27:54.255Z,18.10
2022-10-21T13:30:34.795Z,17.90
2022-10-21T13:33:16.900Z,17.80
2022-10-21T13:35:49.318Z,17.70
2022-10-21T13:38:29.358Z,17.50
2022-10-21T13:40:59.448Z,17.50
2022-10-21T13:43:29.440Z,17.50
2022-10-21T13:46:18.265Z,17.40
2022-10-21T13:48:48.311Z,17.40
2022-10-21T13:51:25.290Z,17.30
2022-10-21T13:54:09.982Z,17.30
2022-10-21T13:56:38.536Z,17.30
2022-10-21T13:59:08.093Z,17.30
2022-10-21T14:01:47.197Z,17.40
2022-10-21T14:04:17.440Z,17.40
2022-10-21T14:06:48.564Z,17.60
2022-10-21T14:09:22.850Z,17.70
2022-10-21T14:11:59.043Z,17.70
2022-10-21T14:14:28.919Z,17.80
2022-10-21T14:17:02.104Z,17.70
2022-10-21T14:19:37.563Z,17.70
2022-10-21T14:24:47.620Z,17.90
2022-10-21T14:27:34.897Z,17.90
2022-10-21T14:30:04.452Z,17.70
2022-10-21T14:32:32.053Z,17.60
2022-10-21T14:35:11.531Z,17.40
2022-10-21T14:37:55.135Z,17.30
2022-10-21T14:40:31.764Z,17.20
2022-10-21T14:43:16.417Z,17.00
2022-10-21T14:45:52.447Z,17.00
2022-10-21T14:48:28.763Z,16.90
2022-10-21T14:51:00.855Z,16.90
2022-10-21T14:53:33.397Z,16.90
2022-10-21T14:56:03.054Z,16.90
2022-10-21T14:58:33.267Z,16.90
2022-10-21T15:01:03.202Z,16.80
2022-10-21T15:03:48.897Z,16.80
2022-10-21T15:06:26.011Z,16.70
2022-10-21T15:09:17.894Z,16.70
2022-10-21T15:11:46.932Z,16.60
2022-10-21T15:14:13.882Z,16.50
2022-10-21T15:16:55.410Z,16.50
2022-10-21T15:19:25.701Z,16.40
2022-10-21T15:21:59.596Z,16.30
2022-10-21T15:24:40.393Z,16.30
2022-10-21T15:27:08.020Z,16.20
2022-10-21T15:29:44.859Z,16.20
2022-10-21T15:32:15.437Z,16.20
2022-10-21T15:34:42.584Z,16.10
2022-10-21T15:37:10.840Z,16.10
2022-10-21T15:39:37.839Z,16.00
2022-10-21T15:42:06.066Z,15.90
2022-10-21T15:44:35.006Z,15.90
2022-10-21T15:47:05.873Z,15.90
2022-10-21T15:49:36.442Z,15.80
2022-10-21T15:52:03.527Z,15.70
2022-10-21T15:54:30.912Z,15.70
2022-10-21T15:56:59.244Z,15.70
2022-10-21T15:59:31.568Z,15.60
2022-10-21T16:01:59.590Z,15.60
2022-10-21T16:04:27.445Z,15.50
2022-10-21T16:06:55.189Z,15.50
2022-10-21T16:09:28.209Z,15.50
2022-10-21T16:12:00.352Z,15.50
2022-10-21T16:14:30.185Z,15.50
2022-10-21T16:16:58.658Z,15.50
2022-10-21T16:19:25.704Z,15.50
2022-10-21T16:21:52.638Z,15.40
2022-10-21T16:24:19.573Z,15.30
2022-10-21T16:26:49.105Z,15.30
2022-10-21T16:29:25.184Z,15.30
2022-10-21T16:31:52.906Z,15.30
2022-10-21T16:34:20.179Z,15.30
2022-10-21T16:36:47.187Z,15.20
2022-10-21T16:39:16.543Z,15.20
2022-10-21T16:41:43.566Z,15.10
2022-10-21T16:44:10.672Z,15.10
2022-10-21T16:46:40.656Z,15.00
2022-10-21T16:49:13.839Z,15.00
2022-10-21T16:51:42.988Z,15.00
2022-10-21T16:54:11.999Z,14.90
2022-10-21T16:56:38.977Z,14.90
2022-10-21T16:59:05.976Z,14.80
2022-10-21T17:01:33.202Z,14.80
2022-10-21T17:04:00.478Z,14.80
2022-10-21T17:06:27.640Z,14.80
2022-10-21T17:08:56.271Z,14.80
2022-10-21T17:11:35.489Z,14.70
2022-10-21T17:14:05.602Z,14.70
2022-10-21T17:16:32.872Z,14.70
2022-10-21T17:18:59.914Z,14.70
2022-10-21T17:21:30.028Z,14.60
2022-10-21T17:23:58.439Z,14.60
2022-10-21T17:26:26.153Z,14.60
2022-10-21T17:28:53.894Z,14.50
2022-10-21T17:31:23.583Z,14.50
2022-10-21T17:33:52.279Z,14.50
2022-10-21T17:36:19.577Z,14.40
2022-10-21T17:38:46.943Z,14.40
2022-10-21T17:41:17.901Z,14.30
2022-10-21T17:43:44.802Z,14.30
2022-10-21T17:46:18.265Z,14.20
2022-10-21T17:48:49.299Z,14.20
2022-10-21T17:51:16.209Z,14.20
2022-10-21T17:53:43.506Z,14.10
2022-10-21T17:56:12.099Z,14.00
2022-10-21T17:58:39.104Z,14.00
2022-10-21T18:01:12.013Z,14.00
2022-10-21T18:03:39.969Z,13.90
2022-10-21T18:06:09.317Z,13.80
2022-10-21T18:08:37.344Z,13.70
2022-10-21T18:11:08.067Z,13.70
2022-10-21T18:13:35.450Z,13.70
2022-10-21T18:16:05.360Z,13.60
2022-10-21T18:18:33.316Z,13.60
2022-10-21T18:21:04.746Z,13.60
2022-10-21T18:23:32.440Z,13.50
2022-10-21T18:26:04.245Z,13.50
2022-10-21T18:28:32.576Z,13.40
2022-10-21T18:31:00.091Z,13.40
2022-10-21T18:33:27.623Z,13.40
2022-10-21T18:35:54.857Z,13.30
2022-10-21T18:38:21.926Z,13.30
2022-10-21T18:40:56.388Z,13.20
2022-10-21T18:43:29.320Z,13.20
2022-10-21T18:45:56.980Z,13.20
2022-10-21T18:48:24.304Z,13.20
2022-10-21T18:50:54.211Z,13.20
2022-10-21T18:53:25.025Z,13.20
2022-10-21T18:55:52.157Z,13.20
2022-10-21T18:58:19.193Z,13.10
2022-10-21T19:00:46.230Z,13.10
2022-10-21T19:03:13.363Z,13.10
2022-10-21T19:05:43.086Z,13.10
2022-10-21T19:08:10.414Z,13.00
2022-10-21T19:10:38.679Z,13.00
2022-10-21T19:13:05.920Z,13.00
2022-10-21T19:15:34.453Z,13.00
2022-10-21T19:18:03.033Z,13.00
2022-10-21T19:20:33.618Z,13.00
2022-10-21T19:23:00.583Z,13.00
2022-10-21T19:25:28.455Z,13.00
2022-10-21T19:27:55.806Z,13.00
2022-10-21T19:30:22.936Z,13.00
2022-10-21T19:32:50.553Z,13.00
2022-10-21T19:35:18.333Z,12.90
2022-10-21T19:37:45.864Z,12.90
2022-10-21T19:40:12.789Z,12.90
2022-10-21T19:42:41.271Z,12.90
2022-10-21T19:45:10.602Z,12.80
2022-10-21T19:47:38.490Z,12.80
2022-10-21T19:50:06.518Z,12.80
2022-10-21T19:52:35.269Z,12.80
2022-10-21T19:55:02.536Z,12.80
2022-10-21T19:57:29.697Z,12.70
2022-10-21T19:59:57.897Z,12.70
2022-10-21T20:02:25.088Z,12.70
2022-10-21T20:04:52.930Z,12.70
2022-10-21T20:07:20.443Z,12.70
2022-10-21T20:09:47.881Z,12.60
2022-10-21T20:12:16.900Z,12.70
2022-10-21T20:14:44.492Z,12.70
2022-10-21T20:17:16.072Z,12.70
2022-10-21T20:19:49.224Z,12.70
2022-10-21T20:22:18.661Z,12.70
2022-10-21T20:24:46.571Z,12.60
2022-10-21T20:27:13.765Z,12.60
2022-10-21T20:29:44.031Z,12.60
2022-10-21T20:32:11.065Z,12.60
2022-10-21T20:34:39.412Z,12.60
2022-10-21T20:37:06.364Z,12.60
2022-10-21T20:39:33.399Z,12.60
2022-10-21T20:42:00.325Z,12.60
2022-10-21T20:44:27.414Z,12.60
2022-10-21T20:46:54.534Z,12.60
2022-10-21T20:49:21.501Z,12.60
2022-10-21T20:51:48.609Z,12.60
2022-10-21T20:54:18.718Z,12.60
2022-10-21T20:56:45.830Z,12.60
2022-10-21T20:59:17.825Z,12.60
2022-10-21T21:01:46.976Z,12.50
2022-10-21T21:04:16.253Z,12.60
2022-10-21T21:06:48.200Z,12.60
2022-10-21T21:12:04.514Z,12.50
2022-10-21T21:14:31.790Z,12.60
2022-10-21T21:16:59.041Z,12.60
2022-10-21T21:19:25.997Z,12.60
2022-10-21T21:21:53.327Z,12.50
2022-10-21T21:24:20.312Z,12.50
2022-10-21T21:26:47.342Z,12.50
2022-10-21T21:29:14.514Z,12.50
2022-10-21T21:31:41.963Z,12.50
2022-10-21T21:34:09.378Z,12.50
2022-10-21T21:36:37.014Z,12.60
2022-10-21T21:39:05.577Z,12.60
2022-10-21T21:41:32.864Z,12.60
2022-10-21T21:44:00.086Z,12.60
2022-10-21T21:46:27.403Z,12.60
2022-10-21T21:49:01.007Z,12.60
2022-10-21T21:51:31.409Z,12.60
2022-10-21T21:53:58.952Z,12.60
2022-10-21T21:56:27.230Z,12.60
2022-10-21T21:58:58.240Z,12.60
2022-10-21T22:01:29.889Z,12.60
2022-10-21T22:03:57.498Z,12.70
2022-10-21T22:09:00.557Z,12.70
2022-10-21T22:11:32.499Z,12.70
2022-10-21T22:13:59.991Z,12.60
2022-10-21T22:16:30.394Z,12.70
2022-10-21T22:18:59.834Z,12.60
2022-10-21T22:21:27.245Z,12.60
2022-10-21T22:23:54.239Z,12.60
2022-10-21T22:26:23.372Z,12.70
2022-10-21T22:28:50.406Z,12.70
2022-10-21T22:31:18.619Z,12.70
2022-10-21T22:33:46.153Z,12.70
2022-10-21T22:36:13.366Z,12.70
2022-10-21T22:38:40.613Z,12.60
2022-10-21T22:41:12.180Z,12.60
2022-10-21T22:43:40.025Z,12.60
2022-10-21T22:46:21.596Z,12.70
2022-10-21T22:48:54.051Z,12.70
2022-10-21T22:51:21.410Z,12.70
2022-10-21T22:53:53.484Z,12.70
2022-10-21T22:56:23.379Z,12.80
2022-10-21T22:58:50.349Z,12.70
2022-10-21T23:01:17.389Z,12.70
2022-10-21T23:03:44.345Z,12.70
2022-10-21T23:06:11.419Z,12.70
2022-10-21T23:08:38.426Z,12.80
2022-10-21T23:11:05.508Z,12.80
2022-10-21T23:13:32.503Z,12.70
2022-10-21T23:15:59.430Z,12.80
2022-10-21T23:18:26.559Z,12.70
2022-10-21T23:20:53.493Z,12.70
2022-10-21T23:23:20.427Z,12.70
2022-10-21T23:25:47.514Z,12.80
2022-10-21T23:28:14.673Z,12.80
2022-10-21T23:30:43.322Z,12.80
2022-10-21T23:33:10.672Z,12.80
2022-10-21T23:35:37.627Z,12.90
2022-10-21T23:38:05.108Z,12.80
2022-10-21T23:40:32.158Z,12.90
2022-10-21T23:42:59.221Z,12.90
2022-10-21T23:45:26.178Z,12.90
2022-10-21T23:47:53.165Z,13.00
2022-10-21T23:50:20.279Z,13.00
2022-10-21T23:52:47.889Z,13.00
2022-10-21T23:55:15.013Z,13.00
2022-10-21T23:57:42.348Z,13.00
